sensor_id;sensor_type;location;lat;lon;timestamp;P1;durP1;ratioP1;P2;durP2;ratioP2
44822;SDS011;51097;51.984;5.650;2022-08-05T00:02:04;11.05;;;5.88;;
44822;SDS011;51097;51.984;5.650;2022-08-05T00:04:29;7.40;;;5.15;;
44822;SDS011;51097;51.984;5.650;2022-08-05T00:06:55;8.75;;;4.60;;
44822;SDS011;51097;51.984;5.650;2022-08-05T00:09:20;9.93;;;5.20;;
44822;SDS011;51097;51.984;5.650;2022-08-05T00:11:46;5.93;;;4.97;;
44822;SDS011;51097;51.984;5.650;2022-08-05T00:14:12;9.40;;;5.72;;
44822;SDS011;51097;51.984;5.650;2022-08-05T00:16:38;8.07;;;4.68;;
44822;SDS011;51097;51.984;5.650;2022-08-05T00:19:03;7.57;;;5.05;;
44822;SDS011;51097;51.984;5.650;2022-08-05T00:21:29;11.80;;;5.47;;
44822;SDS011;51097;51.984;5.650;2022-08-05T00:23:55;8.95;;;6.88;;
44822;SDS011;51097;51.984;5.650;2022-08-05T00:26:20;7.32;;;4.93;;
44822;SDS011;51097;51.984;5.650;2022-08-05T00:28:46;10.68;;;6.07;;
44822;SDS011;51097;51.984;5.650;2022-08-05T00:31:12;8.85;;;6.20;;
44822;SDS011;51097;51.984;5.650;2022-08-05T00:33:37;8.95;;;6.13;;
44822;SDS011;51097;51.984;5.650;2022-08-05T00:36:03;10.77;;;7.25;;
44822;SDS011;51097;51.984;5.650;2022-08-05T00:38:29;10.68;;;6.47;;
44822;SDS011;51097;51.984;5.650;2022-08-05T00:40:55;12.75;;;6.80;;
44822;SDS011;51097;51.984;5.650;2022-08-05T00:43:23;9.60;;;6.47;;
44822;SDS011;51097;51.984;5.650;2022-08-05T00:45:48;9.68;;;7.28;;
44822;SDS011;51097;51.984;5.650;2022-08-05T00:48:18;9.70;;;7.45;;
44822;SDS011;51097;51.984;5.650;2022-08-05T00:50:47;11.13;;;7.55;;
44822;SDS011;51097;51.984;5.650;2022-08-05T00:53:14;13.00;;;7.38;;
44822;SDS011;51097;51.984;5.650;2022-08-05T00:55:42;11.38;;;6.72;;
44822;SDS011;51097;51.984;5.650;2022-08-05T00:58:11;12.93;;;7.32;;
44822;SDS011;51097;51.984;5.650;2022-08-05T01:00:38;12.35;;;6.60;;
44822;SDS011;51097;51.984;5.650;2022-08-05T01:03:04;9.80;;;6.57;;
44822;SDS011;51097;51.984;5.650;2022-08-05T01:05:31;8.38;;;5.85;;
44822;SDS011;51097;51.984;5.650;2022-08-05T01:07:56;9.55;;;5.78;;
44822;SDS011;51097;51.984;5.650;2022-08-05T01:12:57;11.73;;;6.38;;
44822;SDS011;51097;51.984;5.650;2022-08-05T01:15:32;7.85;;;5.55;;
44822;SDS011;51097;51.984;5.650;2022-08-05T01:18:04;12.00;;;6.30;;
44822;SDS011;51097;51.984;5.650;2022-08-05T01:20:45;8.32;;;5.65;;
44822;SDS011;51097;51.984;5.650;2022-08-05T01:26:17;12.23;;;6.20;;
44822;SDS011;51097;51.984;5.650;2022-08-05T01:29:08;6.97;;;5.35;;
44822;SDS011;51097;51.984;5.650;2022-08-05T01:31:42;8.07;;;5.53;;
44822;SDS011;51097;51.984;5.650;2022-08-05T01:34:25;7.50;;;4.70;;
44822;SDS011;51097;51.984;5.650;2022-08-05T01:36:56;7.88;;;5.00;;
44822;SDS011;51097;51.984;5.650;2022-08-05T01:39:36;15.82;;;6.10;;
44822;SDS011;51097;51.984;5.650;2022-08-05T01:42:04;12.88;;;6.60;;
44822;SDS011;51097;51.984;5.650;2022-08-05T01:44:31;7.35;;;6.32;;
44822;SDS011;51097;51.984;5.650;2022-08-05T01:46:58;10.45;;;5.30;;
44822;SDS011;51097;51.984;5.650;2022-08-05T01:49:25;6.22;;;4.75;;
44822;SDS011;51097;51.984;5.650;2022-08-05T01:51:57;8.70;;;6.00;;
44822;SDS011;51097;51.984;5.650;2022-08-05T01:54:30;11.35;;;5.85;;
44822;SDS011;51097;51.984;5.650;2022-08-05T01:56:59;9.32;;;6.18;;
44822;SDS011;51097;51.984;5.650;2022-08-05T01:59:27;8.15;;;5.85;;
44822;SDS011;51097;51.984;5.650;2022-08-05T02:01:57;10.27;;;5.68;;
44822;SDS011;51097;51.984;5.650;2022-08-05T02:04:25;8.50;;;5.63;;
44822;SDS011;51097;51.984;5.650;2022-08-05T02:06:54;8.32;;;4.90;;
44822;SDS011;51097;51.984;5.650;2022-08-05T02:09:20;8.32;;;5.00;;
44822;SDS011;51097;51.984;5.650;2022-08-05T02:14:31;9.38;;;5.35;;
44822;SDS011;51097;51.984;5.650;2022-08-05T02:17:10;9.25;;;5.07;;
44822;SDS011;51097;51.984;5.650;2022-08-05T02:19:42;13.45;;;5.57;;
44822;SDS011;51097;51.984;5.650;2022-08-05T02:22:17;8.10;;;5.82;;
44822;SDS011;51097;51.984;5.650;2022-08-05T02:24:49;9.10;;;4.80;;
44822;SDS011;51097;51.984;5.650;2022-08-05T02:29:44;6.07;;;4.32;;
44822;SDS011;51097;51.984;5.650;2022-08-05T02:32:12;8.10;;;4.78;;
44822;SDS011;51097;51.984;5.650;2022-08-05T02:34:42;5.80;;;4.13;;
44822;SDS011;51097;51.984;5.650;2022-08-05T02:37:09;6.55;;;3.85;;
44822;SDS011;51097;51.984;5.650;2022-08-05T02:39:36;12.80;;;4.80;;
44822;SDS011;51097;51.984;5.650;2022-08-05T02:42:04;6.28;;;4.38;;
44822;SDS011;51097;51.984;5.650;2022-08-05T02:44:31;7.53;;;5.05;;
44822;SDS011;51097;51.984;5.650;2022-08-05T02:47:00;11.47;;;4.80;;
44822;SDS011;51097;51.984;5.650;2022-08-05T02:49:28;8.98;;;5.22;;
44822;SDS011;51097;51.984;5.650;2022-08-05T02:51:57;8.55;;;5.40;;
44822;SDS011;51097;51.984;5.650;2022-08-05T02:54:24;8.38;;;5.05;;
44822;SDS011;51097;51.984;5.650;2022-08-05T02:56:51;8.23;;;5.18;;
44822;SDS011;51097;51.984;5.650;2022-08-05T02:59:17;9.63;;;5.70;;
44822;SDS011;51097;51.984;5.650;2022-08-05T03:01:44;11.20;;;5.60;;
44822;SDS011;51097;51.984;5.650;2022-08-05T03:04:14;6.15;;;4.43;;
44822;SDS011;51097;51.984;5.650;2022-08-05T03:06:41;5.60;;;4.70;;
44822;SDS011;51097;51.984;5.650;2022-08-05T03:09:07;11.15;;;5.70;;
44822;SDS011;51097;51.984;5.650;2022-08-05T03:11:36;8.00;;;5.03;;
44822;SDS011;51097;51.984;5.650;2022-08-05T03:14:06;10.98;;;6.07;;
44822;SDS011;51097;51.984;5.650;2022-08-05T03:16:31;11.00;;;5.55;;
44822;SDS011;51097;51.984;5.650;2022-08-05T03:18:57;9.70;;;5.70;;
44822;SDS011;51097;51.984;5.650;2022-08-05T03:21:24;9.88;;;6.70;;
44822;SDS011;51097;51.984;5.650;2022-08-05T03:23:49;11.90;;;5.25;;
44822;SDS011;51097;51.984;5.650;2022-08-05T03:26:16;9.57;;;6.28;;
44822;SDS011;51097;51.984;5.650;2022-08-05T03:28:41;9.93;;;6.07;;
44822;SDS011;51097;51.984;5.650;2022-08-05T03:31:07;7.72;;;5.95;;
44822;SDS011;51097;51.984;5.650;2022-08-05T03:33:33;8.00;;;5.13;;
44822;SDS011;51097;51.984;5.650;2022-08-05T03:35:59;7.97;;;5.85;;
44822;SDS011;51097;51.984;5.650;2022-08-05T03:38:26;13.00;;;6.40;;
44822;SDS011;51097;51.984;5.650;2022-08-05T03:40:51;9.38;;;6.18;;
44822;SDS011;51097;51.984;5.650;2022-08-05T03:43:17;8.52;;;5.85;;
44822;SDS011;51097;51.984;5.650;2022-08-05T03:45:44;11.57;;;6.13;;
44822;SDS011;51097;51.984;5.650;2022-08-05T03:48:10;8.50;;;5.97;;
44822;SDS011;51097;51.984;5.650;2022-08-05T03:54:02;10.05;;;5.57;;
44822;SDS011;51097;51.984;5.650;2022-08-05T03:58:52;13.27;;;5.90;;
44822;SDS011;51097;51.984;5.650;2022-08-05T04:01:20;8.45;;;4.88;;
44822;SDS011;51097;51.984;5.650;2022-08-05T04:03:47;5.90;;;4.63;;
44822;SDS011;51097;51.984;5.650;2022-08-05T04:06:14;8.98;;;5.15;;
44822;SDS011;51097;51.984;5.650;2022-08-05T04:08:42;5.95;;;4.22;;
44822;SDS011;51097;51.984;5.650;2022-08-05T04:11:08;8.65;;;5.28;;
44822;SDS011;51097;51.984;5.650;2022-08-05T04:13:37;10.10;;;5.78;;
44822;SDS011;51097;51.984;5.650;2022-08-05T04:16:03;9.13;;;5.60;;
44822;SDS011;51097;51.984;5.650;2022-08-05T04:18:30;9.32;;;5.60;;
44822;SDS011;51097;51.984;5.650;2022-08-05T04:20:56;9.25;;;5.65;;
44822;SDS011;51097;51.984;5.650;2022-08-05T04:23:23;8.88;;;5.20;;
44822;SDS011;51097;51.984;5.650;2022-08-05T04:25:50;6.88;;;4.15;;
44822;SDS011;51097;51.984;5.650;2022-08-05T04:28:16;7.88;;;5.38;;
44822;SDS011;51097;51.984;5.650;2022-08-05T04:30:42;6.25;;;4.65;;
44822;SDS011;51097;51.984;5.650;2022-08-05T04:33:08;7.38;;;5.35;;
44822;SDS011;51097;51.984;5.650;2022-08-05T04:35:33;10.50;;;5.80;;
44822;SDS011;51097;51.984;5.650;2022-08-05T04:37:59;8.23;;;5.55;;
44822;SDS011;51097;51.984;5.650;2022-08-05T04:40:24;10.32;;;5.15;;
44822;SDS011;51097;51.984;5.650;2022-08-05T04:42:50;6.07;;;5.20;;
44822;SDS011;51097;51.984;5.650;2022-08-05T04:45:15;11.70;;;4.78;;
44822;SDS011;51097;51.984;5.650;2022-08-05T04:47:41;9.30;;;5.45;;
44822;SDS011;51097;51.984;5.650;2022-08-05T04:50:07;10.82;;;5.18;;
44822;SDS011;51097;51.984;5.650;2022-08-05T04:52:33;8.18;;;5.28;;
44822;SDS011;51097;51.984;5.650;2022-08-05T04:54:58;10.02;;;5.50;;
44822;SDS011;51097;51.984;5.650;2022-08-05T04:57:24;5.75;;;4.50;;
44822;SDS011;51097;51.984;5.650;2022-08-05T04:59:50;10.20;;;4.65;;
44822;SDS011;51097;51.984;5.650;2022-08-05T05:02:15;7.70;;;4.70;;
44822;SDS011;51097;51.984;5.650;2022-08-05T05:04:41;9.50;;;5.40;;
44822;SDS011;51097;51.984;5.650;2022-08-05T05:07:07;8.38;;;5.18;;
44822;SDS011;51097;51.984;5.650;2022-08-05T05:09:32;13.73;;;5.55;;
44822;SDS011;51097;51.984;5.650;2022-08-05T05:11:58;10.68;;;6.07;;
44822;SDS011;51097;51.984;5.650;2022-08-05T05:14:23;8.85;;;5.55;;
44822;SDS011;51097;51.984;5.650;2022-08-05T05:16:49;8.02;;;5.00;;
44822;SDS011;51097;51.984;5.650;2022-08-05T05:19:14;6.47;;;4.25;;
44822;SDS011;51097;51.984;5.650;2022-08-05T05:21:40;7.45;;;5.53;;
44822;SDS011;51097;51.984;5.650;2022-08-05T05:24:05;6.75;;;4.88;;
44822;SDS011;51097;51.984;5.650;2022-08-05T05:26:31;6.25;;;4.85;;
44822;SDS011;51097;51.984;5.650;2022-08-05T05:28:57;11.43;;;5.40;;
44822;SDS011;51097;51.984;5.650;2022-08-05T05:31:22;5.43;;;4.70;;
44822;SDS011;51097;51.984;5.650;2022-08-05T05:33:48;5.40;;;4.78;;
44822;SDS011;51097;51.984;5.650;2022-08-05T05:36:13;11.05;;;5.80;;
44822;SDS011;51097;51.984;5.650;2022-08-05T05:38:39;7.65;;;5.30;;
44822;SDS011;51097;51.984;5.650;2022-08-05T05:41:04;9.48;;;5.22;;
44822;SDS011;51097;51.984;5.650;2022-08-05T05:43:30;7.88;;;4.78;;
44822;SDS011;51097;51.984;5.650;2022-08-05T05:45:55;7.72;;;4.60;;
44822;SDS011;51097;51.984;5.650;2022-08-05T05:48:21;7.70;;;4.55;;
44822;SDS011;51097;51.984;5.650;2022-08-05T05:50:46;9.43;;;5.45;;
44822;SDS011;51097;51.984;5.650;2022-08-05T05:53:14;5.50;;;4.45;;
44822;SDS011;51097;51.984;5.650;2022-08-05T05:55:40;8.05;;;4.68;;
44822;SDS011;51097;51.984;5.650;2022-08-05T05:58:06;9.40;;;5.40;;
44822;SDS011;51097;51.984;5.650;2022-08-05T06:00:31;9.82;;;4.60;;
44822;SDS011;51097;51.984;5.650;2022-08-05T06:02:57;8.20;;;5.47;;
44822;SDS011;51097;51.984;5.650;2022-08-05T06:05:26;6.25;;;4.20;;
44822;SDS011;51097;51.984;5.650;2022-08-05T06:07:51;7.13;;;4.18;;
44822;SDS011;51097;51.984;5.650;2022-08-05T06:10:17;6.32;;;4.30;;
44822;SDS011;51097;51.984;5.650;2022-08-05T06:12:42;9.82;;;4.82;;
44822;SDS011;51097;51.984;5.650;2022-08-05T06:15:08;7.10;;;4.47;;
44822;SDS011;51097;51.984;5.650;2022-08-05T06:17:34;8.43;;;5.60;;
44822;SDS011;51097;51.984;5.650;2022-08-05T06:20:00;7.05;;;4.38;;
44822;SDS011;51097;51.984;5.650;2022-08-05T06:22:30;6.40;;;4.20;;
44822;SDS011;51097;51.984;5.650;2022-08-05T06:24:57;8.18;;;4.82;;
44822;SDS011;51097;51.984;5.650;2022-08-05T06:27:23;6.10;;;4.68;;
44822;SDS011;51097;51.984;5.650;2022-08-05T06:29:49;10.88;;;5.53;;
44822;SDS011;51097;51.984;5.650;2022-08-05T06:32:14;10.80;;;5.68;;
44822;SDS011;51097;51.984;5.650;2022-08-05T06:34:40;8.60;;;5.88;;
44822;SDS011;51097;51.984;5.650;2022-08-05T06:37:05;9.45;;;6.00;;
44822;SDS011;51097;51.984;5.650;2022-08-05T06:39:31;13.07;;;5.75;;
44822;SDS011;51097;51.984;5.650;2022-08-05T06:41:57;10.35;;;6.28;;
44822;SDS011;51097;51.984;5.650;2022-08-05T06:44:25;11.52;;;6.10;;
44822;SDS011;51097;51.984;5.650;2022-08-05T06:46:51;8.18;;;6.03;;
44822;SDS011;51097;51.984;5.650;2022-08-05T06:49:16;11.30;;;6.55;;
44822;SDS011;51097;51.984;5.650;2022-08-05T06:51:42;7.82;;;6.25;;
44822;SDS011;51097;51.984;5.650;2022-08-05T06:54:07;9.55;;;5.90;;
44822;SDS011;51097;51.984;5.650;2022-08-05T06:56:33;7.32;;;5.72;;
44822;SDS011;51097;51.984;5.650;2022-08-05T06:58:58;9.25;;;5.22;;
44822;SDS011;51097;51.984;5.650;2022-08-05T07:01:24;10.20;;;6.05;;
44822;SDS011;51097;51.984;5.650;2022-08-05T07:03:50;9.25;;;6.10;;
44822;SDS011;51097;51.984;5.650;2022-08-05T07:06:15;12.25;;;6.82;;
44822;SDS011;51097;51.984;5.650;2022-08-05T07:08:41;8.25;;;5.38;;
44822;SDS011;51097;51.984;5.650;2022-08-05T07:11:08;5.45;;;4.95;;
44822;SDS011;51097;51.984;5.650;2022-08-05T07:13:34;5.85;;;4.20;;
44822;SDS011;51097;51.984;5.650;2022-08-05T07:16:21;6.45;;;4.35;;
44822;SDS011;51097;51.984;5.650;2022-08-05T07:19:05;6.18;;;4.47;;
44822;SDS011;51097;51.984;5.650;2022-08-05T07:21:31;4.93;;;3.42;;
44822;SDS011;51097;51.984;5.650;2022-08-05T07:23:56;7.07;;;5.43;;
44822;SDS011;51097;51.984;5.650;2022-08-05T07:26:22;8.18;;;4.22;;
44822;SDS011;51097;51.984;5.650;2022-08-05T07:28:47;5.20;;;3.30;;
44822;SDS011;51097;51.984;5.650;2022-08-05T07:31:14;4.07;;;3.30;;
44822;SDS011;51097;51.984;5.650;2022-08-05T07:33:41;5.15;;;3.70;;
44822;SDS011;51097;51.984;5.650;2022-08-05T07:36:06;6.93;;;3.70;;
44822;SDS011;51097;51.984;5.650;2022-08-05T07:38:32;4.88;;;2.88;;
44822;SDS011;51097;51.984;5.650;2022-08-05T07:40:59;6.40;;;3.33;;
44822;SDS011;51097;51.984;5.650;2022-08-05T07:43:25;4.18;;;3.58;;
44822;SDS011;51097;51.984;5.650;2022-08-05T07:45:51;4.38;;;3.00;;
44822;SDS011;51097;51.984;5.650;2022-08-05T07:48:16;4.28;;;2.92;;
44822;SDS011;51097;51.984;5.650;2022-08-05T07:50:42;6.80;;;3.22;;
44822;SDS011;51097;51.984;5.650;2022-08-05T07:53:07;5.00;;;3.22;;
44822;SDS011;51097;51.984;5.650;2022-08-05T07:55:34;4.88;;;3.25;;
44822;SDS011;51097;51.984;5.650;2022-08-05T07:58:00;6.25;;;3.50;;
44822;SDS011;51097;51.984;5.650;2022-08-05T08:00:25;11.55;;;3.72;;
44822;SDS011;51097;51.984;5.650;2022-08-05T08:02:51;4.88;;;3.03;;
44822;SDS011;51097;51.984;5.650;2022-08-05T08:05:16;5.43;;;3.63;;
44822;SDS011;51097;51.984;5.650;2022-08-05T08:07:42;9.02;;;5.15;;
44822;SDS011;51097;51.984;5.650;2022-08-05T08:10:07;8.07;;;3.17;;
44822;SDS011;51097;51.984;5.650;2022-08-05T08:12:33;7.90;;;2.80;;
44822;SDS011;51097;51.984;5.650;2022-08-05T08:14:58;4.57;;;2.70;;
44822;SDS011;51097;51.984;5.650;2022-08-05T08:17:24;6.75;;;3.78;;
44822;SDS011;51097;51.984;5.650;2022-08-05T08:19:50;8.55;;;2.58;;
44822;SDS011;51097;51.984;5.650;2022-08-05T08:22:15;9.88;;;2.97;;
44822;SDS011;51097;51.984;5.650;2022-08-05T08:24:41;5.22;;;2.40;;
44822;SDS011;51097;51.984;5.650;2022-08-05T08:27:07;8.10;;;2.70;;
44822;SDS011;51097;51.984;5.650;2022-08-05T08:29:32;6.20;;;2.35;;
44822;SDS011;51097;51.984;5.650;2022-08-05T08:31:58;4.13;;;2.00;;
44822;SDS011;51097;51.984;5.650;2022-08-05T08:34:24;9.23;;;3.50;;
44822;SDS011;51097;51.984;5.650;2022-08-05T08:36:50;7.43;;;3.10;;
44822;SDS011;51097;51.984;5.650;2022-08-05T08:39:16;7.63;;;2.80;;
44822;SDS011;51097;51.984;5.650;2022-08-05T08:41:43;3.85;;;2.17;;
44822;SDS011;51097;51.984;5.650;2022-08-05T08:44:11;3.22;;;1.20;;
44822;SDS011;51097;51.984;5.650;2022-08-05T08:46:39;4.25;;;2.38;;
44822;SDS011;51097;51.984;5.650;2022-08-05T08:49:05;2.80;;;1.50;;
44822;SDS011;51097;51.984;5.650;2022-08-05T08:51:32;3.97;;;1.70;;
44822;SDS011;51097;51.984;5.650;2022-08-05T08:53:59;1.40;;;1.10;;
44822;SDS011;51097;51.984;5.650;2022-08-05T08:56:25;2.63;;;1.30;;
44822;SDS011;51097;51.984;5.650;2022-08-05T08:58:54;2.40;;;1.23;;
44822;SDS011;51097;51.984;5.650;2022-08-05T09:01:23;4.13;;;1.33;;
44822;SDS011;51097;51.984;5.650;2022-08-05T09:03:50;2.38;;;0.90;;
44822;SDS011;51097;51.984;5.650;2022-08-05T09:06:16;3.08;;;0.82;;
44822;SDS011;51097;51.984;5.650;2022-08-05T09:08:42;4.50;;;0.70;;
44822;SDS011;51097;51.984;5.650;2022-08-05T09:11:07;1.02;;;0.80;;
44822;SDS011;51097;51.984;5.650;2022-08-05T09:13:34;2.60;;;0.55;;
44822;SDS011;51097;51.984;5.650;2022-08-05T09:16:01;2.13;;;0.82;;
44822;SDS011;51097;51.984;5.650;2022-08-05T09:18:27;3.65;;;0.80;;
44822;SDS011;51097;51.984;5.650;2022-08-05T09:20:54;2.83;;;0.65;;
44822;SDS011;51097;51.984;5.650;2022-08-05T09:23:20;1.75;;;0.57;;
44822;SDS011;51097;51.984;5.650;2022-08-05T09:25:46;4.63;;;0.70;;
44822;SDS011;51097;51.984;5.650;2022-08-05T09:28:18;1.48;;;0.90;;
44822;SDS011;51097;51.984;5.650;2022-08-05T09:30:55;1.95;;;1.10;;
44822;SDS011;51097;51.984;5.650;2022-08-05T09:33:23;2.88;;;1.52;;
44822;SDS011;51097;51.984;5.650;2022-08-05T09:38:28;2.72;;;0.75;;
44822;SDS011;51097;51.984;5.650;2022-08-05T09:41:01;1.63;;;0.68;;
44822;SDS011;51097;51.984;5.650;2022-08-05T09:43:32;2.03;;;0.70;;
44822;SDS011;51097;51.984;5.650;2022-08-05T09:46:02;2.28;;;0.68;;
44822;SDS011;51097;51.984;5.650;2022-08-05T09:48:33;1.05;;;0.60;;
44822;SDS011;51097;51.984;5.650;2022-08-05T09:51:03;2.60;;;0.70;;
44822;SDS011;51097;51.984;5.650;2022-08-05T09:53:46;1.77;;;0.98;;
44822;SDS011;51097;51.984;5.650;2022-08-05T09:56:12;5.55;;;1.10;;
44822;SDS011;51097;51.984;5.650;2022-08-05T09:58:38;2.65;;;0.57;;
44822;SDS011;51097;51.984;5.650;2022-08-05T10:01:04;3.05;;;0.95;;
44822;SDS011;51097;51.984;5.650;2022-08-05T10:03:31;1.63;;;0.70;;
44822;SDS011;51097;51.984;5.650;2022-08-05T10:06:01;1.95;;;0.40;;
44822;SDS011;51097;51.984;5.650;2022-08-05T10:08:28;1.13;;;0.40;;
44822;SDS011;51097;51.984;5.650;2022-08-05T10:10:54;1.58;;;0.70;;
44822;SDS011;51097;51.984;5.650;2022-08-05T10:13:27;7.90;;;1.10;;
44822;SDS011;51097;51.984;5.650;2022-08-05T10:15:55;4.13;;;0.98;;
44822;SDS011;51097;51.984;5.650;2022-08-05T10:18:22;4.20;;;0.80;;
44822;SDS011;51097;51.984;5.650;2022-08-05T10:20:50;2.78;;;0.77;;
44822;SDS011;51097;51.984;5.650;2022-08-05T10:25:51;2.05;;;0.50;;
44822;SDS011;51097;51.984;5.650;2022-08-05T10:28:19;8.70;;;1.55;;
44822;SDS011;51097;51.984;5.650;2022-08-05T10:30:45;2.47;;;0.68;;
44822;SDS011;51097;51.984;5.650;2022-08-05T10:33:10;2.80;;;0.85;;
44822;SDS011;51097;51.984;5.650;2022-08-05T10:35:36;0.98;;;0.40;;
44822;SDS011;51097;51.984;5.650;2022-08-05T10:38:03;4.25;;;0.70;;
44822;SDS011;51097;51.984;5.650;2022-08-05T10:40:38;1.83;;;0.77;;
44822;SDS011;51097;51.984;5.650;2022-08-05T10:46:05;3.58;;;0.73;;
44822;SDS011;51097;51.984;5.650;2022-08-05T10:51:09;2.50;;;0.90;;
44822;SDS011;51097;51.984;5.650;2022-08-05T10:53:41;1.67;;;0.50;;
44822;SDS011;51097;51.984;5.650;2022-08-05T10:56:25;1.15;;;0.60;;
44822;SDS011;51097;51.984;5.650;2022-08-05T11:01:26;1.65;;;0.52;;
44822;SDS011;51097;51.984;5.650;2022-08-05T11:09:23;2.78;;;0.80;;
44822;SDS011;51097;51.984;5.650;2022-08-05T11:11:51;2.75;;;0.60;;
44822;SDS011;51097;51.984;5.650;2022-08-05T11:14:24;1.52;;;0.50;;
44822;SDS011;51097;51.984;5.650;2022-08-05T11:19:58;4.85;;;0.55;;
44822;SDS011;51097;51.984;5.650;2022-08-05T11:33:25;3.35;;;0.47;;
44822;SDS011;51097;51.984;5.650;2022-08-05T11:36:09;2.13;;;0.68;;
44822;SDS011;51097;51.984;5.650;2022-08-05T11:41:07;3.70;;;0.50;;
44822;SDS011;51097;51.984;5.650;2022-08-05T11:44:05;1.42;;;0.50;;
44822;SDS011;51097;51.984;5.650;2022-08-05T11:46:49;1.40;;;0.52;;
44822;SDS011;51097;51.984;5.650;2022-08-05T11:49:16;0.63;;;0.40;;
44822;SDS011;51097;51.984;5.650;2022-08-05T11:51:44;2.47;;;0.50;;
44822;SDS011;51097;51.984;5.650;2022-08-05T11:54:11;0.90;;;0.57;;
44822;SDS011;51097;51.984;5.650;2022-08-05T11:56:49;2.35;;;0.52;;
44822;SDS011;51097;51.984;5.650;2022-08-05T11:59:19;1.42;;;0.40;;
44822;SDS011;51097;51.984;5.650;2022-08-05T12:01:51;1.77;;;0.50;;
44822;SDS011;51097;51.984;5.650;2022-08-05T12:04:18;0.77;;;0.55;;
44822;SDS011;51097;51.984;5.650;2022-08-05T12:06:43;2.42;;;0.50;;
44822;SDS011;51097;51.984;5.650;2022-08-05T12:09:09;0.88;;;0.50;;
44822;SDS011;51097;51.984;5.650;2022-08-05T12:11:35;0.77;;;0.38;;
44822;SDS011;51097;51.984;5.650;2022-08-05T12:14:04;2.17;;;0.40;;
44822;SDS011;51097;51.984;5.650;2022-08-05T12:16:39;0.65;;;0.40;;
44822;SDS011;51097;51.984;5.650;2022-08-05T12:19:07;3.28;;;0.50;;
44822;SDS011;51097;51.984;5.650;2022-08-05T12:21:46;4.00;;;0.47;;
44822;SDS011;51097;51.984;5.650;2022-08-05T12:24:18;3.92;;;0.57;;
44822;SDS011;51097;51.984;5.650;2022-08-05T12:29:19;2.13;;;0.47;;
44822;SDS011;51097;51.984;5.650;2022-08-05T12:31:49;2.75;;;0.65;;
44822;SDS011;51097;51.984;5.650;2022-08-05T12:34:17;2.13;;;0.85;;
44822;SDS011;51097;51.984;5.650;2022-08-05T12:36:44;2.33;;;0.57;;
44822;SDS011;51097;51.984;5.650;2022-08-05T12:39:10;3.65;;;0.60;;
44822;SDS011;51097;51.984;5.650;2022-08-05T12:41:37;1.60;;;0.60;;
44822;SDS011;51097;51.984;5.650;2022-08-05T12:44:06;4.30;;;0.47;;
44822;SDS011;51097;51.984;5.650;2022-08-05T12:46:35;4.15;;;0.40;;
44822;SDS011;51097;51.984;5.650;2022-08-05T12:49:07;2.00;;;0.60;;
44822;SDS011;51097;51.984;5.650;2022-08-05T12:54:16;3.67;;;0.50;;
44822;SDS011;51097;51.984;5.650;2022-08-05T12:56:47;4.97;;;0.70;;
44822;SDS011;51097;51.984;5.650;2022-08-05T13:01:44;2.75;;;1.00;;
44822;SDS011;51097;51.984;5.650;2022-08-05T13:04:22;0.90;;;0.40;;
44822;SDS011;51097;51.984;5.650;2022-08-05T13:06:55;1.48;;;0.60;;
44822;SDS011;51097;51.984;5.650;2022-08-05T13:09:25;2.28;;;0.35;;
44822;SDS011;51097;51.984;5.650;2022-08-05T13:11:55;4.35;;;0.68;;
44822;SDS011;51097;51.984;5.650;2022-08-05T13:14:38;2.83;;;1.10;;
44822;SDS011;51097;51.984;5.650;2022-08-05T13:17:17;1.77;;;0.90;;
44822;SDS011;51097;51.984;5.650;2022-08-05T13:22:40;2.15;;;0.65;;
44822;SDS011;51097;51.984;5.650;2022-08-05T13:25:11;2.38;;;0.63;;
44822;SDS011;51097;51.984;5.650;2022-08-05T13:27:51;1.70;;;0.52;;
44822;SDS011;51097;51.984;5.650;2022-08-05T13:30:19;3.50;;;0.93;;
44822;SDS011;51097;51.984;5.650;2022-08-05T13:32:46;2.45;;;0.65;;
44822;SDS011;51097;51.984;5.650;2022-08-05T13:35:13;1.33;;;0.50;;
44822;SDS011;51097;51.984;5.650;2022-08-05T13:37:40;0.73;;;0.40;;
44822;SDS011;51097;51.984;5.650;2022-08-05T13:40:06;2.20;;;0.50;;
44822;SDS011;51097;51.984;5.650;2022-08-05T13:42:33;1.50;;;0.63;;
44822;SDS011;51097;51.984;5.650;2022-08-05T13:44:58;1.60;;;0.40;;
44822;SDS011;51097;51.984;5.650;2022-08-05T13:47:24;1.00;;;0.50;;
44822;SDS011;51097;51.984;5.650;2022-08-05T13:49:50;3.25;;;0.43;;
44822;SDS011;51097;51.984;5.650;2022-08-05T13:52:18;2.92;;;0.43;;
44822;SDS011;51097;51.984;5.650;2022-08-05T13:54:48;0.70;;;0.40;;
44822;SDS011;51097;51.984;5.650;2022-08-05T13:57:14;1.65;;;0.60;;
44822;SDS011;51097;51.984;5.650;2022-08-05T13:59:40;1.85;;;0.50;;
44822;SDS011;51097;51.984;5.650;2022-08-05T14:02:07;1.40;;;0.63;;
44822;SDS011;51097;51.984;5.650;2022-08-05T14:04:35;0.98;;;0.50;;
44822;SDS011;51097;51.984;5.650;2022-08-05T14:07:24;2.65;;;0.57;;
44822;SDS011;51097;51.984;5.650;2022-08-05T14:09:52;2.15;;;0.65;;
44822;SDS011;51097;51.984;5.650;2022-08-05T14:12:18;4.40;;;0.63;;
44822;SDS011;51097;51.984;5.650;2022-08-05T14:14:44;3.08;;;0.93;;
44822;SDS011;51097;51.984;5.650;2022-08-05T14:17:09;2.38;;;1.50;;
44822;SDS011;51097;51.984;5.650;2022-08-05T14:19:35;1.95;;;0.50;;
44822;SDS011;51097;51.984;5.650;2022-08-05T14:22:00;2.70;;;0.60;;
44822;SDS011;51097;51.984;5.650;2022-08-05T14:24:26;2.95;;;0.60;;
44822;SDS011;51097;51.984;5.650;2022-08-05T14:26:52;2.83;;;0.47;;
44822;SDS011;51097;51.984;5.650;2022-08-05T14:29:17;1.77;;;0.55;;
44822;SDS011;51097;51.984;5.650;2022-08-05T14:31:43;1.30;;;0.45;;
44822;SDS011;51097;51.984;5.650;2022-08-05T14:34:09;3.67;;;1.10;;
44822;SDS011;51097;51.984;5.650;2022-08-05T14:36:34;3.40;;;0.70;;
44822;SDS011;51097;51.984;5.650;2022-08-05T14:39:00;4.05;;;0.93;;
44822;SDS011;51097;51.984;5.650;2022-08-05T14:41:25;2.22;;;0.63;;
44822;SDS011;51097;51.984;5.650;2022-08-05T14:43:51;4.70;;;1.05;;
44822;SDS011;51097;51.984;5.650;2022-08-05T14:46:18;3.42;;;0.70;;
44822;SDS011;51097;51.984;5.650;2022-08-05T14:48:44;1.85;;;0.60;;
44822;SDS011;51097;51.984;5.650;2022-08-05T14:51:10;3.72;;;0.98;;
44822;SDS011;51097;51.984;5.650;2022-08-05T14:53:35;3.55;;;1.10;;
44822;SDS011;51097;51.984;5.650;2022-08-05T14:56:01;2.78;;;0.70;;
44822;SDS011;51097;51.984;5.650;2022-08-05T14:58:27;3.72;;;0.70;;
44822;SDS011;51097;51.984;5.650;2022-08-05T15:00:52;1.75;;;0.60;;
44822;SDS011;51097;51.984;5.650;2022-08-05T15:03:18;1.02;;;0.73;;
44822;SDS011;51097;51.984;5.650;2022-08-05T15:05:43;0.47;;;0.43;;
44822;SDS011;51097;51.984;5.650;2022-08-05T15:08:09;1.52;;;0.57;;
44822;SDS011;51097;51.984;5.650;2022-08-05T15:10:34;1.45;;;0.57;;
44822;SDS011;51097;51.984;5.650;2022-08-05T15:13:00;3.75;;;0.75;;
44822;SDS011;51097;51.984;5.650;2022-08-05T15:15:27;2.10;;;0.70;;
44822;SDS011;51097;51.984;5.650;2022-08-05T15:17:53;2.58;;;0.57;;
44822;SDS011;51097;51.984;5.650;2022-08-05T15:20:19;1.70;;;0.40;;
44822;SDS011;51097;51.984;5.650;2022-08-05T15:22:49;2.88;;;1.00;;
44822;SDS011;51097;51.984;5.650;2022-08-05T15:25:14;1.50;;;0.57;;
44822;SDS011;51097;51.984;5.650;2022-08-05T15:27:40;1.10;;;0.45;;
44822;SDS011;51097;51.984;5.650;2022-08-05T15:30:06;3.90;;;0.65;;
44822;SDS011;51097;51.984;5.650;2022-08-05T15:32:34;1.23;;;0.47;;
44822;SDS011;51097;51.984;5.650;2022-08-05T15:35:00;2.60;;;1.23;;
44822;SDS011;51097;51.984;5.650;2022-08-05T15:37:26;3.42;;;0.77;;
44822;SDS011;51097;51.984;5.650;2022-08-05T15:39:51;1.40;;;0.50;;
44822;SDS011;51097;51.984;5.650;2022-08-05T15:42:18;3.72;;;0.65;;
44822;SDS011;51097;51.984;5.650;2022-08-05T15:44:43;2.05;;;0.47;;
44822;SDS011;51097;51.984;5.650;2022-08-05T15:47:09;2.35;;;0.65;;
44822;SDS011;51097;51.984;5.650;2022-08-05T15:49:35;1.30;;;0.40;;
44822;SDS011;51097;51.984;5.650;2022-08-05T15:52:01;1.17;;;0.70;;